Time;durP1;ratioP1;P1;durP2;ratioP2;P2;SDS_P1;SDS_P2;PMS_P1;PMS_P2;Temp;Humidity;BMP_temperature;BMP_pressure;BME280_temperature;BME280_humidity;BME280_pressure;Samples;Min_cycle;Max_cycle;Signal;HPM_P1;HPM_P2
2021/10/10 00:00:53;;;;;;;14.15;12.75;;;;;;;11.66;60.53;101305.25;10263584;28;20043;-64
2021/10/10 00:05:55;;;;;;;18.10;13.07;;;;;;;11.63;60.92;101310.78;10267840;28;20138;-64
2021/10/10 00:10:56;;;;;;;15.52;14.10;;;;;;;11.60;60.74;101313.63;10268783;28;20102;-64
2021/10/10 00:15:58;;;;;;;16.10;14.10;;;;;;;11.59;60.53;101311.09;10268008;28;20598;-64
2021/10/10 00:20:59;;;;;;;15.68;13.88;;;;;;;11.55;60.78;101309.59;10272239;28;20508;-65
2021/10/10 00:26:01;;;;;;;15.38;13.40;;;;;;;11.52;60.88;101316.00;10263893;28;20967;-65
2021/10/10 00:31:02;;;;;;;18.88;14.20;;;;;;;11.45;60.93;101312.03;10271587;28;20050;-64
2021/10/10 00:36:04;;;;;;;15.40;13.27;;;;;;;11.39;61.03;101304.44;10263218;28;20047;-65
2021/10/10 00:41:06;;;;;;;17.40;13.55;;;;;;;11.35;61.26;101298.47;10264202;28;20105;-65
2021/10/10 00:46:07;;;;;;;15.30;13.55;;;;;;;11.26;61.17;101294.59;10271743;28;20074;-64
2021/10/10 00:51:09;;;;;;;16.92;14.25;;;;;;;11.21;61.57;101291.38;10275703;28;20117;-64
2021/10/10 00:56:11;;;;;;;17.55;13.07;;;;;;;11.16;61.70;101287.34;10289962;28;20059;-65
2021/10/10 01:01:15;;;;;;;16.05;14.20;;;;;;;11.17;61.50;101292.56;10311740;28;20046;-65
2021/10/10 01:06:17;;;;;;;14.02;12.57;;;;;;;11.13;61.40;101288.38;10291257;28;20055;-64
2021/10/10 01:11:19;;;;;;;16.27;13.30;;;;;;;11.00;61.61;101277.66;10271343;28;20109;-65
2021/10/10 01:16:21;;;;;;;17.85;13.52;;;;;;;11.01;61.96;101287.38;10267910;28;20082;-65
2021/10/10 01:21:23;;;;;;;16.15;14.18;;;;;;;10.96;61.94;101286.84;10269093;28;20400;-64
2021/10/10 01:26:24;;;;;;;19.10;13.90;;;;;;;10.88;61.74;101274.00;10262366;28;20089;-70
2021/10/10 01:31:25;;;;;;;16.67;14.05;;;;;;;10.83;62.16;101272.63;10265968;28;20102;-65
2021/10/10 01:36:27;;;;;;;15.85;13.48;;;;;;;10.78;62.05;101262.25;10268776;28;20039;-64
2021/10/10 01:41:28;;;;;;;15.75;12.65;;;;;;;10.74;62.03;101266.91;10267817;28;20496;-65
2021/10/10 01:46:30;;;;;;;16.13;13.63;;;;;;;10.69;61.78;101266.38;10287563;28;20155;-65
2021/10/10 01:51:31;;;;;;;16.83;13.10;;;;;;;10.61;62.32;101258.88;10271581;28;20374;-65
2021/10/10 01:56:32;;;;;;;15.77;14.07;;;;;;;10.58;62.48;101252.88;10264088;28;20497;-64
2021/10/10 02:01:34;;;;;;;14.52;12.88;;;;;;;10.57;62.04;101254.72;10270712;28;20042;-65
2021/10/10 02:06:36;;;;;;;15.57;13.65;;;;;;;10.55;62.06;101253.97;10281322;28;20073;-65
2021/10/10 02:11:37;;;;;;;13.93;12.52;;;;;;;10.51;62.17;101255.09;10287486;28;20047;-64
2021/10/10 02:16:38;;;;;;;14.60;12.98;;;;;;;10.49;62.03;101262.31;10286479;28;20058;-65
2021/10/10 02:21:40;;;;;;;14.25;12.77;;;;;;;10.43;61.82;101262.72;10291376;28;20110;-65
2021/10/10 02:26:42;;;;;;;16.98;14.68;;;;;;;10.37;62.03;101252.47;10269735;28;20055;-64
2021/10/10 02:31:44;;;;;;;16.05;13.60;;;;;;;10.34;62.10;101248.19;10261863;28;20101;-64
2021/10/10 02:36:45;;;;;;;16.30;13.95;;;;;;;10.31;62.57;101251.00;10264882;28;20094;-64
2021/10/10 02:41:47;;;;;;;17.75;14.90;;;;;;;10.27;62.81;101262.81;10259475;28;20452;-64
2021/10/10 02:46:49;;;;;;;16.23;14.50;;;;;;;10.22;62.69;101260.44;10260060;28;20581;-64
2021/10/10 02:51:50;;;;;;;19.67;17.67;;;;;;;10.12;63.19;101251.34;10260030;28;20073;-65
2021/10/10 02:56:51;;;;;;;19.05;15.85;;;;;;;10.10;63.10;101250.56;10266153;28;20070;-65
2021/10/10 03:01:53;;;;;;;17.52;15.07;;;;;;;10.02;62.68;101245.72;10269233;28;20047;-64
2021/10/10 03:06:54;;;;;;;18.15;14.27;;;;;;;10.03;62.81;101239.47;10264331;28;20050;-66
2021/10/10 03:11:56;;;;;;;15.70;13.48;;;;;;;10.00;62.89;101244.13;10266368;28;20142;-65
2021/10/10 03:16:58;;;;;;;16.90;13.32;;;;;;;10.03;62.74;101249.25;10267038;28;20082;-64
2021/10/10 03:21:59;;;;;;;16.58;14.73;;;;;;;9.99;62.88;101242.41;10277110;28;20055;-64
2021/10/10 03:27:01;;;;;;;15.18;13.25;;;;;;;9.93;62.78;101251.63;10300197;28;20059;-64
2021/10/10 03:32:02;;;;;;;16.98;14.45;;;;;;;9.86;62.88;101250.28;10301151;28;20070;-64
2021/10/10 03:37:04;;;;;;;14.43;12.90;;;;;;;9.82;62.79;101252.28;10301047;28;20062;-65
2021/10/10 03:42:05;;;;;;;16.35;14.60;;;;;;;9.74;62.75;101238.59;10295735;28;20054;-63
2021/10/10 03:47:07;;;;;;;14.48;12.95;;;;;;;9.73;62.71;101242.22;10288250;28;20046;-64
2021/10/10 03:52:09;;;;;;;16.63;13.73;;;;;;;9.73;62.86;101244.88;10280299;28;20091;-64
2021/10/10 03:57:11;;;;;;;15.52;13.35;;;;;;;9.74;62.71;101238.59;10284410;28;20105;-64
2021/10/10 04:02:12;;;;;;;17.05;13.57;;;;;;;9.73;62.62;101235.09;10261255;28;20039;-64
2021/10/10 04:07:15;;;;;;;15.32;12.77;;;;;;;9.72;62.20;101230.72;10268901;28;20078;-64
2021/10/10 04:12:17;;;;;;;14.68;13.07;;;;;;;9.77;62.10;101229.56;10270748;28;20124;-64
2021/10/10 04:17:18;;;;;;;15.98;13.05;;;;;;;9.76;62.29;101242.03;10266722;28;20537;-64
2021/10/10 04:22:20;;;;;;;16.42;14.25;;;;;;;9.75;62.12;101232.34;10265528;28;20051;-64
2021/10/10 04:27:21;;;;;;;16.17;13.15;;;;;;;9.69;62.32;101235.38;10273428;28;20077;-64
2021/10/10 04:32:23;;;;;;;17.73;13.95;;;;;;;9.64;62.43;101229.50;10263337;28;20077;-63
2021/10/10 04:37:24;;;;;;;17.30;13.90;;;;;;;9.59;62.56;101239.53;10263232;28;20087;-64
2021/10/10 04:42:26;;;;;;;16.27;14.60;;;;;;;9.50;62.93;101231.19;10261207;28;20067;-63
2021/10/10 04:47:27;;;;;;;17.52;14.70;;;;;;;9.44;62.78;101231.53;10266798;28;20085;-64
2021/10/10 04:52:30;;;;;;;18.77;14.50;;;;;;;9.42;62.39;101233.44;10266651;28;20248;-63
2021/10/10 04:57:31;;;;;;;19.05;15.35;;;;;;;9.38;62.42;101232.78;10272204;28;20050;-64
2021/10/10 05:02:33;;;;;;;17.23;15.43;;;;;;;9.37;62.54;101227.56;10264827;28;20050;-64
2021/10/10 05:07:34;;;;;;;17.85;15.00;;;;;;;9.32;62.85;101227.81;10269617;28;20162;-64
2021/10/10 05:12:36;;;;;;;17.35;14.48;;;;;;;9.23;62.63;101222.19;10272770;28;20412;-63
2021/10/10 05:17:38;;;;;;;17.08;14.43;;;;;;;9.19;62.55;101222.38;10279678;28;20487;-64
2021/10/10 05:22:43;;;;;;;17.77;14.90;;;;;;;9.14;62.54;101229.78;10285416;23;20065;-59
2021/10/10 05:27:45;;;;;;;14.93;13.38;;;;;;;9.15;62.69;101239.44;10258643;28;20125;-60
2021/10/10 05:32:46;;;;;;;16.00;14.27;;;;;;;9.20;62.61;101242.69;10241573;28;20121;-59
2021/10/10 05:37:48;;;;;;;17.52;14.63;;;;;;;9.25;62.66;101238.88;10248624;28;20214;-60
2021/10/10 05:42:49;;;;;;;15.35;13.75;;;;;;;9.19;62.10;101243.63;10245900;28;20399;-60
2021/10/10 05:47:50;;;;;;;15.20;13.55;;;;;;;9.13;62.28;101235.19;10243308;28;20129;-60
2021/10/10 05:52:52;;;;;;;16.50;13.90;;;;;;;9.15;62.74;101234.13;10246054;28;20050;-61
2021/10/10 05:57:53;;;;;;;15.15;13.27;;;;;;;9.17;62.52;101228.72;10242189;28;20071;-60
2021/10/10 06:02:55;;;;;;;16.60;13.60;;;;;;;9.20;62.16;101239.16;10241320;28;20463;-61
2021/10/10 06:07:56;;;;;;;18.58;13.88;;;;;;;9.24;62.32;101247.81;10239813;28;20046;-58
2021/10/10 06:12:58;;;;;;;18.92;14.70;;;;;;;9.17;62.03;101240.22;10242804;28;20055;-60
2021/10/10 06:18:00;;;;;;;15.15;13.07;;;;;;;9.26;62.33;101240.59;10240821;28;20059;-61
2021/10/10 06:23:02;;;;;;;17.98;13.27;;;;;;;9.34;62.20;101227.72;10239988;28;20051;-60
2021/10/10 06:28:04;;;;;;;15.05;13.23;;;;;;;9.49;61.81;101234.78;10244559;28;20066;-60
2021/10/10 06:33:11;;;;;;;17.25;14.23;;;;;;;9.59;61.51;101234.22;10239431;28;22085;-59
2021/10/10 06:38:13;;;;;;;17.83;13.80;;;;;;;9.73;60.96;101242.22;10244207;28;20266;-59
2021/10/10 06:43:16;;;;;;;14.73;13.20;;;;;;;9.86;60.98;101245.84;10243535;28;20056;-59
2021/10/10 06:48:18;;;;;;;15.53;13.67;;;;;;;9.98;60.61;101246.00;10250312;28;20070;-59
2021/10/10 06:53:19;;;;;;;16.17;14.48;;;;;;;10.08;59.99;101245.34;10245178;28;20130;-59
2021/10/10 06:58:22;;;;;;;15.98;14.27;;;;;;;10.19;60.04;101242.03;10246207;28;20082;-59
2021/10/10 07:03:23;;;;;;;19.75;15.13;;;;;;;10.39;59.39;101245.25;10246600;28;20951;-59
2021/10/10 07:08:24;;;;;;;18.95;15.25;;;;;;;10.53;59.39;101253.19;10244839;28;20503;-59
2021/10/10 07:13:26;;;;;;;17.25;14.20;;;;;;;10.68;59.17;101246.00;10260141;28;20181;-58
2021/10/10 07:18:36;;;;;;;15.38;13.23;;;;;;;10.92;58.62;101254.22;10254273;28;21417;-59
2021/10/10 07:28:54;;;;;;;18.77;13.32;;;;;;;11.44;56.75;101244.53;10251425;28;20047;-56
2021/10/10 07:33:56;;;;;;;14.40;12.82;;;;;;;11.44;55.80;101259.66;10247248;28;20069;-54
2021/10/10 07:38:57;;;;;;;15.45;11.73;;;;;;;11.44;54.58;101248.97;10251122;28;20071;-53
2021/10/10 07:43:58;;;;;;;15.10;11.15;;;;;;;11.43;53.97;101263.28;10251687;28;20555;-60
2021/10/10 07:49:00;;;;;;;13.60;11.57;;;;;;;11.82;53.25;101264.19;10252601;28;20134;-59
2021/10/10 07:54:01;;;;;;;13.85;11.43;;;;;;;12.02;52.88;101262.78;10253608;28;20157;-60
2021/10/10 07:59:03;;;;;;;15.07;11.18;;;;;;;12.17;52.77;101271.53;10251159;28;20086;-59
2021/10/10 08:04:04;;;;;;;13.40;11.65;;;;;;;12.37;51.39;101270.97;10250177;28;20047;-59
2021/10/10 08:09:06;;;;;;;12.18;10.27;;;;;;;12.38;51.55;101270.00;10247246;28;20126;-59
2021/10/10 08:14:07;;;;;;;14.43;11.88;;;;;;;12.43;51.54;101276.81;10245132;28;21148;-60
2021/10/10 08:19:09;;;;;;;11.23;10.13;;;;;;;12.86;50.23;101281.72;10244526;28;20097;-59
2021/10/10 08:24:11;;;;;;;12.00;10.73;;;;;;;13.23;49.52;101270.94;10255082;28;20136;-59
2021/10/10 08:29:14;;;;;;;11.50;10.30;;;;;;;13.53;49.18;101278.47;10246296;28;20079;-59
2021/10/10 08:34:15;;;;;;;12.75;11.18;;;;;;;13.77;48.30;101278.41;10244653;28;20141;-59
2021/10/10 08:39:24;;;;;;;12.07;10.88;;;;;;;13.95;48.14;101280.63;10247819;28;20047;-60
2021/10/10 08:44:37;;;;;;;11.07;9.85;;;;;;;14.32;47.36;101269.66;10242699;28;20054;-60
2021/10/10 08:49:39;;;;;;;14.23;10.45;;;;;;;14.80;46.00;101277.41;10246691;28;20245;-59
2021/10/10 08:54:42;;;;;;;14.32;10.52;;;;;;;15.10;45.83;101270.50;10245262;28;20573;-60
2021/10/10 08:59:49;;;;;;;11.90;9.32;;;;;;;15.40;43.86;101266.19;10242884;28;20047;-59
2021/10/10 09:04:51;;;;;;;11.23;10.13;;;;;;;15.89;43.46;101270.06;10241813;28;20213;-60
2021/10/10 09:09:53;;;;;;;11.50;10.32;;;;;;;16.25;43.17;101259.75;10242250;28;20126;-60
2021/10/10 09:14:54;;;;;;;11.73;9.95;;;;;;;16.72;41.70;101266.38;10243385;28;20050;-60
2021/10/10 09:19:59;;;;;;;10.82;9.73;;;;;;;16.95;41.99;101261.63;10239277;28;20532;-60
2021/10/10 09:25:11;;;;;;;10.50;9.40;;;;;;;17.34;40.43;101264.31;10246639;28;20133;-60
2021/10/10 09:30:13;;;;;;;10.48;9.38;;;;;;;17.69;39.38;101262.00;10245036;28;20591;-60
2021/10/10 09:35:31;;;;;;;13.98;10.23;;;;;;;17.81;39.15;101253.59;10241919;28;20157;-60
2021/10/10 09:40:37;;;;;;;10.25;9.15;;;;;;;18.26;37.63;101254.72;10244677;28;20046;-60
2021/10/10 09:45:53;;;;;;;9.13;8.23;;;;;;;19.11;36.39;101259.00;10239434;28;20101;-60
2021/10/10 09:50:55;;;;;;;12.18;9.88;;;;;;;21.85;31.64;101248.78;10247188;28;20073;-60
2021/10/10 09:56:06;;;;;;;11.80;9.73;;;;;;;24.63;27.42;101242.31;10245909;28;20086;-60
2021/10/10 10:01:14;;;;;;;10.32;8.85;;;;;;;25.85;25.56;101240.41;10246929;28;20057;-63
2021/10/10 10:06:16;;;;;;;10.32;9.23;;;;;;;25.47;26.49;101248.97;10262195;28;20047;-61
2021/10/10 10:11:18;;;;;;;10.05;8.65;;;;;;;23.38;29.42;101249.31;10243040;28;20145;-61
2021/10/10 10:16:20;;;;;;;11.15;10.05;;;;;;;22.90;29.00;101246.78;10242765;28;20075;-60
2021/10/10 10:21:22;;;;;;;13.67;9.80;;;;;;;23.92;28.99;101251.84;10247870;28;20098;-61
2021/10/10 10:26:24;;;;;;;11.68;9.75;;;;;;;27.01;25.21;101239.63;10247183;28;20130;-61
2021/10/10 10:31:26;;;;;;;8.83;7.97;;;;;;;30.70;20.43;101238.13;10243136;28;20522;-61
2021/10/10 10:36:48;;;;;;;10.23;8.90;;;;;;;32.50;17.98;101234.03;10237644;28;20437;-61
2021/10/10 10:41:50;;;;;;;10.25;9.10;;;;;;;33.69;17.67;101229.44;10245289;28;20121;-61
2021/10/10 10:47:06;;;;;;;10.60;9.55;;;;;;;34.15;16.84;101221.75;10237519;28;20131;-61
2021/10/10 10:52:35;;;;;;;8.00;7.40;;;;;;;34.73;16.05;101224.06;10240496;28;20047;-60
2021/10/10 10:57:41;;;;;;;10.35;8.63;;;;;;;35.71;15.05;101214.56;10243758;28;20610;-62
2021/10/10 11:02:50;;;;;;;8.70;7.93;;;;;;;36.05;14.33;101208.66;10239471;28;20662;-61
2021/10/10 11:07:52;;;;;;;8.95;8.10;;;;;;;35.99;13.76;101209.75;10241886;28;20466;-62
2021/10/10 11:13:17;;;;;;;9.65;7.93;;;;;;;36.67;13.92;101191.34;10246271;28;20087;-62
2021/10/10 11:18:27;;;;;;;7.97;7.15;;;;;;;37.01;13.45;101185.25;10253558;28;20064;-62
2021/10/10 11:23:29;;;;;;;8.93;8.13;;;;;;;38.06;12.58;101182.72;10254119;28;20128;-62
2021/10/10 11:28:40;;;;;;;7.88;7.15;;;;;;;39.02;12.47;101172.06;10251648;28;20141;-61
2021/10/10 11:33:47;;;;;;;9.85;7.25;;;;;;;39.02;12.17;101166.47;10244408;28;20071;-60
2021/10/10 11:38:52;;;;;;;7.75;6.97;;;;;;;40.04;11.23;101179.53;10244909;28;20802;-59
2021/10/10 11:43:59;;;;;;;9.10;7.05;;;;;;;40.58;10.88;101175.41;10243764;28;20118;-61
2021/10/10 11:49:00;;;;;;;7.97;6.97;;;;;;;40.70;10.75;101171.28;10247524;28;20074;-60
2021/10/10 11:54:04;;;;;;;8.45;7.63;;;;;;;40.38;11.25;101168.16;10244351;28;20078;-60
2021/10/10 11:59:12;;;;;;;7.55;6.88;;;;;;;38.93;11.15;101167.41;10253244;28;20070;-58
2021/10/10 12:04:16;;;;;;;8.23;6.85;;;;;;;38.93;11.69;101162.69;10254760;28;20070;-61
2021/10/10 12:09:19;;;;;;;8.93;7.15;;;;;;;39.89;11.32;101156.31;10256552;28;20137;-60
2021/10/10 12:14:20;;;;;;;7.50;6.75;;;;;;;40.25;10.99;101150.25;10252682;28;20078;-59
2021/10/10 12:19:22;;;;;;;8.00;7.20;;;;;;;41.64;10.16;101144.13;10253401;28;20113;-59
2021/10/10 12:24:25;;;;;;;7.68;6.97;;;;;;;42.40;9.76;101135.16;10254818;28;20071;-60
2021/10/10 12:29:28;;;;;;;7.30;6.70;;;;;;;41.68;9.71;101131.19;10252597;28;20117;-60
2021/10/10 12:34:31;;;;;;;6.85;6.18;;;;;;;40.01;11.04;101130.81;10260841;28;20086;-60
2021/10/10 12:39:50;;;;;;;9.60;6.78;;;;;;;41.29;10.77;101125.00;10258618;28;20054;-60
2021/10/10 12:45:09;;;;;;;8.13;7.35;;;;;;;40.68;10.48;101121.38;10254633;28;20103;-60
2021/10/10 12:50:11;;;;;;;8.13;7.32;;;;;;;41.06;10.45;101115.66;10255632;28;20046;-62
2021/10/10 12:55:27;;;;;;;9.50;8.57;;;;;;;41.54;10.10;101108.84;10254333;28;20047;-59
2021/10/10 13:00:28;;;;;;;8.32;7.63;;;;;;;41.91;10.07;101112.53;10258956;28;20138;-59
2021/10/10 13:05:30;;;;;;;8.50;6.53;;;;;;;41.14;9.95;101106.59;10255125;28;20443;-59
2021/10/10 13:10:32;;;;;;;7.10;6.43;;;;;;;41.56;10.25;101102.94;10249816;28;20157;-60
2021/10/10 13:15:33;;;;;;;7.20;6.32;;;;;;;41.93;10.26;101081.47;10254042;28;20149;-60
2021/10/10 13:20:35;;;;;;;7.28;6.57;;;;;;;40.16;10.66;101081.53;10257559;28;20070;-61
2021/10/10 13:25:36;;;;;;;6.68;5.82;;;;;;;41.31;10.32;101077.22;10254683;28;20491;-61
2021/10/10 13:30:37;;;;;;;7.07;6.38;;;;;;;40.85;10.40;101081.72;10255578;28;20109;-61
2021/10/10 13:35:42;;;;;;;7.03;6.25;;;;;;;40.15;10.68;101085.44;10257966;28;20058;-59
2021/10/10 13:40:43;;;;;;;7.63;6.88;;;;;;;38.99;11.31;101086.38;10251940;28;20133;-61
2021/10/10 13:45:47;;;;;;;7.72;6.38;;;;;;;38.43;12.34;101087.72;10251360;28;20130;-60
2021/10/10 13:50:49;;;;;;;9.05;6.80;;;;;;;36.12;13.63;101069.03;10254015;28;20680;-61
2021/10/10 13:55:50;;;;;;;7.63;6.78;;;;;;;33.89;15.00;101079.81;10252164;28;20138;-60
2021/10/10 14:00:53;;;;;;;10.40;8.05;;;;;;;32.35;16.87;101064.66;10235820;28;20141;-52
2021/10/10 14:05:55;;;;;;;8.35;7.45;;;;;;;29.43;20.02;101046.56;10246823;28;20055;-57
2021/10/10 14:10:56;;;;;;;8.52;7.10;;;;;;;28.97;21.06;101038.84;10250041;28;20129;-53
2021/10/10 14:15:58;;;;;;;8.95;7.32;;;;;;;28.01;21.67;101028.91;10256416;28;20137;-54
2021/10/10 14:21:00;;;;;;;8.05;7.20;;;;;;;26.38;23.83;101033.28;10246415;28;20058;-54
2021/10/10 14:26:01;;;;;;;10.48;7.85;;;;;;;24.86;25.54;101041.50;10237027;28;20050;-59
2021/10/10 14:31:03;;;;;;;9.73;8.83;;;;;;;23.68;27.18;101050.97;10240511;28;20153;-60
2021/10/10 14:36:04;;;;;;;11.40;8.02;;;;;;;22.65;29.18;101053.47;10240770;28;20058;-60
2021/10/10 14:41:14;;;;;;;8.95;7.85;;;;;;;22.17;30.30;101050.94;10235970;28;20166;-59
2021/10/10 14:46:16;;;;;;;11.18;8.07;;;;;;;21.85;30.57;101042.81;10239383;28;20134;-59
2021/10/10 14:51:17;;;;;;;8.25;7.45;;;;;;;21.63;30.97;101049.91;10240549;28;20075;-59
2021/10/10 14:56:19;;;;;;;8.98;7.32;;;;;;;21.57;31.27;101053.31;10240970;28;20177;-57
2021/10/10 15:01:21;;;;;;;10.82;7.93;;;;;;;21.30;31.87;101049.16;10241833;28;21009;-59
2021/10/10 15:06:23;;;;;;;8.35;7.55;;;;;;;21.00;32.56;101046.19;10243961;28;20090;-59
2021/10/10 15:11:25;;;;;;;11.45;8.30;;;;;;;20.65;33.89;101043.72;10238090;28;20137;-58
2021/10/10 15:16:27;;;;;;;13.02;8.25;;;;;;;20.25;34.85;101055.34;10243839;28;21058;-59
2021/10/10 15:21:28;;;;;;;11.73;8.20;;;;;;;20.06;35.41;101051.94;10237963;28;20090;-59
2021/10/10 15:26:30;;;;;;;8.52;7.72;;;;;;;19.90;35.76;101057.31;10238889;28;20058;-59
2021/10/10 15:31:31;;;;;;;10.65;9.02;;;;;;;19.48;35.71;101055.47;10242022;28;20105;-60
2021/10/10 15:36:33;;;;;;;8.30;7.40;;;;;;;19.21;37.44;101047.41;10246835;28;20085;-58
2021/10/10 15:41:35;;;;;;;9.80;8.40;;;;;;;18.97;37.33;101039.19;10265913;28;20300;-59
2021/10/10 15:46:36;;;;;;;9.27;7.32;;;;;;;18.73;38.13;101040.69;10245729;28;20154;-57
2021/10/10 15:51:38;;;;;;;10.43;8.18;;;;;;;18.68;39.62;101046.53;10246416;28;20048;-58
2021/10/10 15:56:40;;;;;;;14.82;10.82;;;;;;;18.50;39.37;101043.03;10248103;28;20138;-57
2021/10/10 16:01:42;;;;;;;15.23;11.55;;;;;;;18.29;40.02;101046.06;10245219;28;20463;-58
2021/10/10 16:06:43;;;;;;;13.77;10.32;;;;;;;18.11;41.72;101044.22;10240699;28;20098;-57
2021/10/10 16:11:45;;;;;;;13.50;9.60;;;;;;;17.95;42.31;101047.56;10246696;28;20149;-57
2021/10/10 16:16:46;;;;;;;11.55;8.52;;;;;;;17.75;42.57;101043.31;10245616;28;20066;-59
2021/10/10 16:21:48;;;;;;;10.23;9.00;;;;;;;17.58;42.63;101040.44;10247901;28;20047;-58
2021/10/10 16:26:49;;;;;;;10.48;9.02;;;;;;;17.43;43.39;101039.22;10252172;28;20126;-59
2021/10/10 16:31:51;;;;;;;12.07;9.32;;;;;;;17.29;43.93;101041.41;10243226;28;20189;-58
2021/10/10 16:42:19;;;;;;;10.57;9.52;;;;;;;17.03;45.37;101043.06;10223207;28;20182;-58
2021/10/10 16:47:21;;;;;;;13.38;11.15;;;;;;;16.79;46.53;101049.75;10245219;28;20461;-58
2021/10/10 16:52:22;;;;;;;14.57;12.70;;;;;;;16.67;47.45;101053.59;10242193;28;20146;-57
2021/10/10 16:57:25;;;;;;;13.60;12.25;;;;;;;16.51;48.54;101057.69;10243490;28;20185;-57
2021/10/10 17:02:26;;;;;;;16.00;12.50;;;;;;;16.39;48.93;101050.78;10245884;28;20061;-57
2021/10/10 17:07:28;;;;;;;14.05;11.73;;;;;;;16.27;49.13;101063.50;10238773;28;20047;-58
2021/10/10 17:12:31;;;;;;;12.70;11.20;;;;;;;16.10;49.18;101067.75;10244216;28;20050;-59
2021/10/10 17:17:33;;;;;;;14.03;11.87;;;;;;;15.93;49.83;101079.16;10243124;28;20053;-58
2021/10/10 17:22:35;;;;;;;15.52;12.30;;;;;;;15.78;51.46;101068.81;10260742;28;20047;-61
2021/10/10 17:27:36;;;;;;;15.52;11.98;;;;;;;15.74;51.25;101083.47;10246852;28;20129;-61
2021/10/10 17:32:37;;;;;;;13.13;11.70;;;;;;;15.62;51.32;101079.19;10244358;28;20844;-59
2021/10/10 17:37:40;;;;;;;13.27;11.32;;;;;;;15.48;51.52;101073.22;10242851;28;20135;-58
2021/10/10 17:42:41;;;;;;;18.35;16.45;;;;;;;15.42;51.29;101081.81;10241216;28;20136;-59
2021/10/10 17:47:43;;;;;;;13.93;11.35;;;;;;;15.26;52.06;101076.09;10243258;28;20519;-59
2021/10/10 17:52:44;;;;;;;14.23;12.48;;;;;;;15.22;52.52;101080.00;10243556;28;20495;-58
2021/10/10 17:57:48;;;;;;;15.93;12.20;;;;;;;15.08;52.40;101076.69;10252824;28;20464;-60
2021/10/10 18:13:34;;;;;;;18.85;12.50;;;;;;;14.87;53.14;101089.28;10238662;28;20126;-57
2021/10/10 18:18:37;;;;;;;17.10;12.48;;;;;;;14.74;54.04;101090.31;10244027;28;20047;-57
2021/10/10 18:23:38;;;;;;;14.13;11.50;;;;;;;14.78;53.46;101091.75;10241038;28;20920;-57
2021/10/10 18:28:39;;;;;;;15.35;12.40;;;;;;;14.72;53.70;101086.91;10236912;28;20082;-57
2021/10/10 18:33:44;;;;;;;16.30;12.65;;;;;;;14.65;53.61;101085.72;10240758;28;20512;-57
2021/10/10 18:38:46;;;;;;;14.48;12.00;;;;;;;14.62;54.51;101091.34;10240222;28;20043;-57
2021/10/10 18:43:48;;;;;;;13.77;11.98;;;;;;;14.52;54.88;101093.94;10237317;28;20612;-57
2021/10/10 18:48:49;;;;;;;18.48;14.13;;;;;;;14.38;56.01;101100.44;10242675;28;20058;-57
2021/10/10 18:53:51;;;;;;;17.63;14.57;;;;;;;14.26;56.55;101101.44;10239480;28;20177;-57
2021/10/10 18:58:53;;;;;;;15.75;14.05;;;;;;;14.20;56.84;101101.94;10255699;28;20043;-57
2021/10/10 19:03:55;;;;;;;16.83;14.60;;;;;;;14.12;56.92;101095.41;10242704;28;20140;-57
2021/10/10 19:08:57;;;;;;;17.35;15.57;;;;;;;14.12;57.48;101103.44;10248511;28;20117;-57
2021/10/10 19:13:58;;;;;;;19.23;15.85;;;;;;;14.02;56.94;101104.31;10249465;28;20647;-57
2021/10/10 19:19:17;;;;;;;17.70;14.88;;;;;;;13.78;58.09;101102.63;10243798;28;20062;-57
2021/10/10 19:24:18;;;;;;;20.83;15.50;;;;;;;13.79;58.13;101099.84;10247730;28;20055;-57
2021/10/10 19:29:20;;;;;;;16.95;14.15;;;;;;;13.79;58.02;101096.31;10248437;28;20138;-57
2021/10/10 19:34:21;;;;;;;15.40;13.82;;;;;;;13.74;58.30;101096.69;10244942;28;20485;-57
2021/10/10 19:39:23;;;;;;;17.52;14.60;;;;;;;13.66;58.29;101107.19;10248190;28;20078;-57
2021/10/10 19:44:43;;;;;;;20.10;14.82;;;;;;;13.57;59.08;101113.25;10241128;28;20055;-56
2021/10/10 19:49:45;;;;;;;21.38;17.83;;;;;;;13.40;59.23;101099.38;10245055;28;20195;-57
2021/10/10 19:54:50;;;;;;;21.17;16.88;;;;;;;13.37;59.37;101114.81;10258666;28;20486;-57
2021/10/10 19:59:52;;;;;;;20.40;16.58;;;;;;;13.24;59.56;101109.53;10247289;28;20078;-58
2021/10/10 20:04:53;;;;;;;17.77;14.98;;;;;;;13.20;60.01;101108.09;10253777;28;20086;-56
2021/10/10 20:09:54;;;;;;;17.42;15.65;;;;;;;12.99;59.91;101111.47;10242936;28;20181;-58
2021/10/10 20:14:56;;;;;;;18.48;15.18;;;;;;;12.91;60.15;101111.22;10244925;28;20062;-58
2021/10/10 20:19:57;;;;;;;17.88;16.08;;;;;;;12.84;60.41;101113.50;10263956;28;20101;-59
2021/10/10 20:24:59;;;;;;;18.60;16.80;;;;;;;12.78;61.04;101119.31;10246321;28;20127;-58
2021/10/10 20:30:01;;;;;;;18.40;16.42;;;;;;;12.70;61.44;101111.88;10249263;28;20144;-57
2021/10/10 20:35:03;;;;;;;19.25;16.13;;;;;;;12.75;62.20;101118.69;10248486;28;20416;-59
2021/10/10 20:40:05;;;;;;;18.60;15.45;;;;;;;12.64;62.30;101117.69;10242932;28;20632;-58
2021/10/10 20:45:07;;;;;;;18.85;15.57;;;;;;;12.67;62.23;101144.16;10246232;28;20200;-59
2021/10/10 20:50:09;;;;;;;22.10;16.58;;;;;;;12.63;62.52;101145.34;10271223;28;20105;-57
2021/10/10 20:55:10;;;;;;;20.40;18.27;;;;;;;12.52;62.50;101139.94;10271200;28;20047;-57
2021/10/10 21:00:12;;;;;;;17.52;15.55;;;;;;;12.48;62.58;101143.84;10270663;28;20082;-59
2021/10/10 21:05:13;;;;;;;19.52;16.80;;;;;;;12.50;62.83;101136.56;10270112;28;20074;-57
2021/10/10 21:10:16;;;;;;;20.15;16.40;;;;;;;12.44;62.90;101131.69;10270654;28;20102;-58
2021/10/10 21:15:18;;;;;;;19.15;17.08;;;;;;;12.31;62.81;101129.91;10269772;28;20051;-58
2021/10/10 21:20:19;;;;;;;19.17;16.38;;;;;;;12.32;63.07;101128.09;10270044;28;20066;-58
2021/10/10 21:25:26;;;;;;;19.42;16.88;;;;;;;12.23;63.08;101126.94;10279386;28;20101;-59
2021/10/10 21:35:39;;;;;;;18.83;17.00;;;;;;;12.06;63.64;101116.69;10262768;28;20089;-59
2021/10/10 21:40:40;;;;;;;20.17;18.02;;;;;;;11.87;64.13;101123.28;10258295;28;20071;-56
2021/10/10 21:45:41;;;;;;;18.90;16.77;;;;;;;11.67;64.25;101128.25;10261194;28;20078;-58
2021/10/10 21:50:43;;;;;;;20.40;18.20;;;;;;;11.56;64.85;101124.63;10265371;28;20248;-58
2021/10/10 21:55:44;;;;;;;19.45;16.95;;;;;;;11.48;65.29;101128.72;10262630;28;20046;-57
2021/10/10 22:00:47;;;;;;;19.65;17.50;;;;;;;11.45;65.45;101142.28;10267259;28;20109;-57
2021/10/10 22:05:49;;;;;;;19.15;16.55;;;;;;;11.41;65.01;101132.78;10260226;28;20201;-60
2021/10/10 22:10:50;;;;;;;18.45;16.67;;;;;;;11.36;64.60;101134.03;10260325;28;20138;-58
2021/10/10 22:15:52;;;;;;;18.30;15.95;;;;;;;11.24;64.75;101139.25;10265407;28;20074;-57
2021/10/10 22:20:55;;;;;;;19.17;15.48;;;;;;;11.16;65.17;101122.97;10263536;28;20046;-59
2021/10/10 22:26:42;;;;;;;16.77;14.98;;;;;;;11.07;65.54;101123.59;10259639;28;20296;-57
2021/10/10 22:31:21;;;;;;;17.75;15.88;;;;;;;11.04;65.58;101143.31;10257609;28;20042;-59
2021/10/10 22:36:22;;;;;;;16.35;14.65;;;;;;;10.98;65.92;101140.22;10256369;28;20146;-58
2021/10/10 22:41:26;;;;;;;16.88;15.15;;;;;;;10.92;66.00;101138.81;10276533;28;20063;-57
2021/10/10 22:46:27;;;;;;;17.13;15.32;;;;;;;10.81;66.40;101134.22;10264051;28;20161;-60
2021/10/10 22:51:31;;;;;;;17.02;14.15;;;;;;;10.84;66.29;101138.47;10265183;28;20054;-57
2021/10/10 22:56:33;;;;;;;15.48;13.90;;;;;;;10.81;66.36;101131.56;10268035;28;20061;-57
2021/10/10 23:01:35;;;;;;;15.30;13.80;;;;;;;10.73;66.46;101121.44;10265279;28;20767;-56
2021/10/10 23:06:36;;;;;;;16.58;14.77;;;;;;;10.77;66.42;101122.06;10263434;28;20620;-59
2021/10/10 23:11:38;;;;;;;18.90;15.63;;;;;;;10.74;66.65;101123.13;10262858;28;20114;-57
2021/10/10 23:16:39;;;;;;;17.77;15.77;;;;;;;10.69;66.32;101129.69;10263758;28;20122;-59